Time;durP1;ratioP1;P1;durP2;ratioP2;P2;SDS_P1;SDS_P2;PMS_P1;PMS_P2;Temp;Humidity;BMP_temperature;BMP_pressure;BME280_temperature;BME280_humidity;BME280_pressure;Samples;Min_cycle;Max_cycle;Signal;HPM_P1;HPM_P2
2021/10/27 00:01:32;;;;;;;20.55;15.50;;;14.30;87.80;;;;;;5024188;28;20037;-73
2021/10/27 00:03:58;;;;;;;20.13;15.70;;;14.30;87.90;;;;;;5030618;28;20064;-73
2021/10/27 00:06:23;;;;;;;19.80;17.23;;;14.30;87.90;;;;;;5030319;28;20114;-73
2021/10/27 00:08:49;;;;;;;18.38;14.88;;;14.30;87.90;;;;;;5031129;28;20504;-73
2021/10/27 00:11:17;;;;;;;20.05;15.65;;;14.30;87.90;;;;;;5031463;28;20052;-74
2021/10/27 00:13:43;;;;;;;21.50;16.35;;;14.40;87.90;;;;;;5029610;28;20025;-73
2021/10/27 00:16:09;;;;;;;21.58;16.50;;;14.30;87.90;;;;;;5031620;28;20396;-73
2021/10/27 00:18:35;;;;;;;19.88;15.63;;;14.30;87.90;;;;;;5030095;28;20041;-73
2021/10/27 00:21:01;;;;;;;18.35;15.45;;;14.40;87.90;;;;;;5029416;28;20049;-73
2021/10/27 00:23:26;;;;;;;22.10;16.02;;;14.40;87.90;;;;;;5031335;28;20056;-73
2021/10/27 00:25:52;;;;;;;20.92;16.23;;;14.40;87.90;;;;;;5030804;28;20046;-73
2021/10/27 00:28:18;;;;;;;25.58;16.38;;;14.40;87.90;;;;;;5030708;28;20025;-73
2021/10/27 00:30:43;;;;;;;20.13;15.23;;;14.40;88.50;;;;;;5030404;28;20041;-72
2021/10/27 00:33:09;;;;;;;20.17;14.20;;;14.40;87.90;;;;;;5010002;28;20042;-72
2021/10/27 00:35:35;;;;;;;17.58;14.18;;;14.40;87.80;;;;;;5008110;28;20041;-73
2021/10/27 00:38:01;;;;;;;19.20;16.27;;;14.50;87.80;;;;;;5022706;28;20034;-73
2021/10/27 00:40:27;;;;;;;20.58;17.15;;;14.50;87.90;;;;;;5029754;28;20022;-73
2021/10/27 00:42:53;;;;;;;19.10;15.07;;;14.40;87.90;;;;;;5031037;28;20032;-73
2021/10/27 00:45:20;;;;;;;22.52;16.17;;;14.50;88.00;;;;;;5029385;28;20527;-73
2021/10/27 00:47:46;;;;;;;22.42;16.20;;;14.40;88.00;;;;;;5012805;28;20036;-73
2021/10/27 00:50:12;;;;;;;19.15;14.90;;;14.40;88.10;;;;;;5028707;28;20569;-73
2021/10/27 00:52:37;;;;;;;19.45;15.13;;;14.40;88.10;;;;;;5029311;28;20022;-72
2021/10/27 00:55:04;;;;;;;17.13;15.13;;;14.40;88.00;;;;;;5024716;28;20401;-72
2021/10/27 00:57:30;;;;;;;20.55;16.10;;;14.40;88.00;;;;;;5030255;28;20108;-73
2021/10/27 00:59:56;;;;;;;20.98;16.92;;;14.50;88.10;;;;;;5028952;28;20171;-73
2021/10/27 01:02:22;;;;;;;22.50;16.90;;;14.50;88.20;;;;;;5029179;28;20068;-73
2021/10/27 01:04:48;;;;;;;18.50;16.00;;;14.50;88.30;;;;;;5029865;28;20496;-73
2021/10/27 01:07:15;;;;;;;18.65;15.63;;;14.50;88.30;;;;;;5030293;28;20029;-74
2021/10/27 01:09:42;;;;;;;20.30;16.25;;;14.50;88.40;;;;;;5029892;28;20032;-73
2021/10/27 01:12:08;;;;;;;19.40;16.40;;;14.50;88.40;;;;;;5028293;28;20063;-73
2021/10/27 01:14:39;;;;;;;19.77;15.27;;;14.50;88.60;;;;;;5030522;28;20152;-72
2021/10/27 01:17:07;;;;;;;19.77;16.27;;;14.50;88.70;;;;;;5028855;28;20392;-72
2021/10/27 01:19:47;;;;;;;19.70;17.35;;;14.50;88.80;;;;;;5029806;28;20036;-72
2021/10/27 01:22:14;;;;;;;20.33;16.23;;;14.50;88.90;;;;;;5030016;28;20037;-72
2021/10/27 01:24:41;;;;;;;23.73;16.75;;;14.50;88.90;;;;;;5030063;28;20032;-72
2021/10/27 01:27:06;;;;;;;19.85;15.25;;;14.50;88.90;;;;;;5028374;28;20025;-73
2021/10/27 01:29:33;;;;;;;22.33;16.20;;;14.50;89.00;;;;;;5029478;28;20025;-73
2021/10/27 01:31:59;;;;;;;21.90;16.67;;;14.50;89.10;;;;;;5030451;28;20056;-72
2021/10/27 01:34:25;;;;;;;17.77;14.82;;;14.50;89.20;;;;;;5012114;28;20037;-73
2021/10/27 01:36:51;;;;;;;24.13;17.02;;;14.50;89.20;;;;;;5030512;28;20477;-72
2021/10/27 01:39:16;;;;;;;19.13;15.27;;;14.50;89.30;;;;;;5029408;28;20472;-73
2021/10/27 01:41:42;;;;;;;19.42;15.80;;;14.50;89.30;;;;;;5028843;28;20033;-73
2021/10/27 01:44:08;;;;;;;24.27;17.00;;;14.50;89.40;;;;;;5008906;28;20064;-73
2021/10/27 01:46:36;;;;;;;20.30;15.10;;;14.50;89.50;;;;;;5027530;28;20040;-74
2021/10/27 01:49:05;;;;;;;21.33;15.48;;;14.50;89.50;;;;;;5023749;28;20138;-72
2021/10/27 01:51:38;;;;;;;22.40;16.77;;;14.50;89.60;;;;;;5028927;28;20165;-73
2021/10/27 01:54:05;;;;;;;21.45;14.80;;;14.50;89.70;;;;;;5028629;28;20048;-74
2021/10/27 01:56:32;;;;;;;17.77;15.70;;;14.50;89.70;;;;;;5029958;28;20032;-74
2021/10/27 01:58:58;;;;;;;20.70;15.90;;;14.50;89.80;;;;;;5029491;28;20384;-71
2021/10/27 02:01:24;;;;;;;17.25;13.77;;;14.50;89.90;;;;;;5029707;28;20022;-72
2021/10/27 02:03:49;;;;;;;20.10;15.50;;;14.50;89.90;;;;;;5027854;28;20040;-73
2021/10/27 02:06:15;;;;;;;24.00;15.65;;;14.50;90.00;;;;;;5029280;28;20480;-73
2021/10/27 02:08:42;;;;;;;22.02;14.88;;;14.50;90.00;;;;;;5027851;28;20030;-73
2021/10/27 02:11:09;;;;;;;15.98;13.85;;;14.50;90.10;;;;;;5028015;28;20391;-71
2021/10/27 02:13:35;;;;;;;22.73;15.50;;;14.50;90.10;;;;;;5029992;28;20100;-72
2021/10/27 02:16:01;;;;;;;21.83;14.55;;;14.50;90.10;;;;;;5028327;28;20132;-73
2021/10/27 02:18:26;;;;;;;18.15;13.85;;;14.40;90.10;;;;;;5027822;28;20030;-73
2021/10/27 02:20:52;;;;;;;23.50;16.35;;;14.50;90.10;;;;;;5028520;28;20032;-73
2021/10/27 02:23:18;;;;;;;16.95;12.70;;;14.50;90.20;;;;;;5030134;28;20022;-73
2021/10/27 02:25:44;;;;;;;17.20;13.23;;;14.40;90.20;;;;;;5028071;28;20025;-74
2021/10/27 02:28:10;;;;;;;18.15;14.45;;;14.40;90.20;;;;;;5027529;28;20040;-72
2021/10/27 02:30:36;;;;;;;19.13;13.73;;;14.50;90.20;;;;;;5029114;28;20096;-72
2021/10/27 02:33:06;;;;;;;17.85;13.43;;;14.50;90.20;;;;;;5028321;28;20083;-73
2021/10/27 02:35:32;;;;;;;18.05;13.20;;;14.40;90.20;;;;;;5028707;28;20018;-73
2021/10/27 02:37:58;;;;;;;14.30;12.13;;;14.50;90.20;;;;;;5031573;28;20519;-72
2021/10/27 02:40:25;;;;;;;17.85;11.90;;;14.40;90.20;;;;;;5033018;28;20496;-73
2021/10/27 02:42:56;;;;;;;19.13;12.13;;;14.50;90.50;;;;;;5033443;28;20025;-73
2021/10/27 02:45:22;;;;;;;16.52;11.65;;;14.40;90.20;;;;;;5031332;28;20400;-72
2021/10/27 02:47:47;;;;;;;19.65;12.23;;;14.50;90.20;;;;;;5031992;28;20030;-72
2021/10/27 02:50:14;;;;;;;17.35;12.13;;;14.50;90.10;;;;;;5011586;28;20030;-72
2021/10/27 02:52:44;;;;;;;17.00;11.27;;;14.50;90.10;;;;;;5022157;28;20503;-72
2021/10/27 02:55:11;;;;;;;15.90;11.05;;;14.50;90.10;;;;;;5030985;28;20030;-72
2021/10/27 02:57:37;;;;;;;13.18;10.13;;;14.50;90.10;;;;;;5020542;28;20017;-73
2021/10/27 03:00:05;;;;;;;13.63;9.45;;;14.50;90.00;;;;;;5031804;28;20033;-73
2021/10/27 03:02:31;;;;;;;20.10;11.70;;;14.50;90.00;;;;;;5032983;28;20385;-73
2021/10/27 03:04:56;;;;;;;14.80;10.18;;;14.50;89.90;;;;;;5032397;28;20026;-73
2021/10/27 03:07:22;;;;;;;15.40;9.60;;;14.60;90.00;;;;;;5031157;28;20022;-72
2021/10/27 03:09:48;;;;;;;12.27;9.10;;;14.60;89.90;;;;;;5015201;28;20082;-72
2021/10/27 03:12:14;;;;;;;14.60;8.93;;;14.60;89.70;;;;;;5031409;28;20064;-73
2021/10/27 03:14:45;;;;;;;12.52;8.50;;;14.60;89.70;;;;;;5032378;28;20125;-72
2021/10/27 03:17:11;;;;;;;11.02;7.82;;;14.60;89.60;;;;;;5032125;28;20036;-72
2021/10/27 03:19:36;;;;;;;13.43;8.60;;;14.60;89.50;;;;;;5030983;28;20488;-72
2021/10/27 03:22:03;;;;;;;16.23;8.70;;;14.60;89.40;;;;;;5014879;28;20473;-73
2021/10/27 03:24:29;;;;;;;12.80;8.40;;;14.60;89.40;;;;;;5032273;28;20033;-73
2021/10/27 03:26:54;;;;;;;13.57;7.43;;;14.60;89.30;;;;;;5030868;28;20041;-73
2021/10/27 03:29:23;;;;;;;16.02;7.72;;;14.60;89.20;;;;;;5032101;28;20021;-72
2021/10/27 03:31:50;;;;;;;13.82;7.38;;;14.60;89.20;;;;;;5029211;28;20048;-73
2021/10/27 03:34:16;;;;;;;10.57;6.78;;;14.60;89.20;;;;;;5027258;28;20032;-73
2021/10/27 03:36:42;;;;;;;16.20;7.22;;;14.60;89.10;;;;;;5013476;28;20029;-73
2021/10/27 03:39:08;;;;;;;12.07;7.22;;;14.60;89.10;;;;;;5031569;28;20021;-73
2021/10/27 03:41:34;;;;;;;11.88;6.03;;;14.60;89.00;;;;;;5030650;28;20033;-72
2021/10/27 03:43:59;;;;;;;11.88;6.13;;;14.60;88.90;;;;;;5016138;28;20456;-73
2021/10/27 03:46:25;;;;;;;12.57;5.35;;;14.60;88.90;;;;;;5025339;28;20038;-73
2021/10/27 03:48:51;;;;;;;12.90;6.25;;;14.60;88.80;;;;;;5030552;28;20036;-73
2021/10/27 03:51:17;;;;;;;12.43;6.28;;;14.60;88.80;;;;;;5032615;28;20026;-73
2021/10/27 03:53:43;;;;;;;13.80;6.38;;;14.60;88.70;;;;;;5031647;28;20373;-72
2021/10/27 03:56:08;;;;;;;10.88;4.35;;;14.60;88.50;;;;;;5014346;28;20044;-73
2021/10/27 03:58:34;;;;;;;10.68;5.53;;;14.60;88.50;;;;;;5031462;28;20331;-73
2021/10/27 04:01:01;;;;;;;12.73;5.78;;;14.60;88.50;;;;;;5032056;28;20025;-72
2021/10/27 04:03:27;;;;;;;12.25;4.70;;;14.60;88.20;;;;;;5031527;28;20057;-72
2021/10/27 04:05:53;;;;;;;12.95;5.43;;;14.60;88.20;;;;;;5031142;28;20040;-71
2021/10/27 04:08:19;;;;;;;8.38;4.60;;;14.60;88.20;;;;;;5029866;28;20108;-72
2021/10/27 04:10:45;;;;;;;11.35;4.75;;;14.60;88.20;;;;;;5031453;28;20488;-72
2021/10/27 04:13:15;;;;;;;13.10;5.60;;;14.60;88.10;;;;;;5029916;28;20033;-72
2021/10/27 04:15:41;;;;;;;8.57;4.88;;;14.60;88.00;;;;;;5029114;28;20061;-73
2021/10/27 04:18:08;;;;;;;10.15;4.78;;;14.60;87.80;;;;;;5031298;28;20064;-72
2021/10/27 04:20:35;;;;;;;10.32;4.80;;;14.60;87.90;;;;;;5031036;28;20037;-73
2021/10/27 04:23:00;;;;;;;10.63;4.88;;;14.60;87.80;;;;;;5010348;28;20083;-72
2021/10/27 04:25:26;;;;;;;7.75;4.25;;;14.60;87.60;;;;;;5018431;28;20033;-73
2021/10/27 04:27:52;;;;;;;8.43;4.32;;;14.70;87.70;;;;;;5018414;28;20473;-73
2021/10/27 04:30:18;;;;;;;8.25;4.43;;;14.70;87.50;;;;;;5034325;28;20044;-72
2021/10/27 04:32:44;;;;;;;12.02;5.30;;;14.70;87.50;;;;;;5038037;28;20489;-72
2021/10/27 04:35:10;;;;;;;7.72;4.13;;;14.70;87.40;;;;;;5037969;28;20048;-72
2021/10/27 04:37:41;;;;;;;8.82;3.97;;;14.70;87.50;;;;;;5035523;28;20440;-72
2021/10/27 04:40:09;;;;;;;10.25;4.22;;;14.70;87.30;;;;;;5039200;28;20021;-73
2021/10/27 04:42:36;;;;;;;8.45;3.88;;;14.70;87.30;;;;;;5038135;28;20533;-72
2021/10/27 04:45:03;;;;;;;9.00;4.28;;;14.70;87.20;;;;;;5031626;28;20083;-72
2021/10/27 04:47:29;;;;;;;9.70;4.70;;;14.70;87.20;;;;;;5042028;28;20044;-73
2021/10/27 04:49:54;;;;;;;10.80;4.03;;;14.70;87.20;;;;;;5042015;28;20025;-73
2021/10/27 04:52:20;;;;;;;8.52;4.53;;;14.70;87.20;;;;;;5036552;28;20036;-73
2021/10/27 04:54:46;;;;;;;10.05;4.05;;;14.70;87.10;;;;;;5037194;28;20029;-73
2021/10/27 04:57:12;;;;;;;12.70;4.30;;;14.70;87.10;;;;;;5040950;28;20362;-73
2021/10/27 04:59:44;;;;;;;7.45;3.65;;;14.70;86.90;;;;;;5039363;28;20029;-73
2021/10/27 05:02:12;;;;;;;10.38;4.05;;;14.70;86.90;;;;;;5032817;28;20040;-73
2021/10/27 05:04:38;;;;;;;15.90;4.93;;;14.70;86.90;;;;;;5034876;28;20033;-72
2021/10/27 05:07:05;;;;;;;6.57;3.53;;;14.70;86.80;;;;;;5033090;28;20087;-72
2021/10/27 05:09:31;;;;;;;10.32;4.50;;;14.70;86.70;;;;;;5040933;28;20498;-72
2021/10/27 05:11:57;;;;;;;10.70;4.57;;;14.70;86.60;;;;;;5041976;28;20022;-73
2021/10/27 05:14:23;;;;;;;9.95;4.30;;;14.70;86.70;;;;;;5039057;28;20029;-73
2021/10/27 05:16:49;;;;;;;9.20;4.00;;;14.70;86.60;;;;;;5035106;28;20040;-73
2021/10/27 05:19:14;;;;;;;10.95;4.50;;;14.70;86.50;;;;;;5031295;28;20542;-73
2021/10/27 05:21:40;;;;;;;8.52;3.85;;;14.70;86.60;;;;;;5027235;28;20026;-72
2021/10/27 05:24:06;;;;;;;12.00;4.00;;;14.70;86.50;;;;;;5011616;28;20562;-72
2021/10/27 05:26:31;;;;;;;8.60;3.70;;;14.70;86.60;;;;;;5029061;28;20108;-72
2021/10/27 05:28:57;;;;;;;9.85;4.13;;;14.70;86.60;;;;;;4992163;28;20066;-72
2021/10/27 05:31:23;;;;;;;8.52;3.92;;;14.70;86.50;;;;;;5030472;28;20052;-73
2021/10/27 05:33:49;;;;;;;11.15;4.68;;;14.70;86.50;;;;;;5028636;28;20026;-73
2021/10/27 05:36:15;;;;;;;11.77;4.40;;;14.60;86.50;;;;;;5012170;28;20049;-73
2021/10/27 05:38:41;;;;;;;9.15;4.00;;;14.70;86.60;;;;;;5029219;28;20025;-72
2021/10/27 05:41:07;;;;;;;8.45;4.10;;;14.70;86.60;;;;;;5028712;28;20456;-73
2021/10/27 05:43:35;;;;;;;11.20;4.13;;;14.70;86.60;;;;;;5030282;28;20034;-73
2021/10/27 05:46:01;;;;;;;9.27;4.43;;;14.70;86.50;;;;;;5028413;28;20502;-72
2021/10/27 05:48:38;;;;;;;10.43;4.10;;;14.70;86.60;;;;;;5029589;28;20522;-72
2021/10/27 05:56:19;;;;;;;8.50;4.32;;;14.70;86.50;;;;;;5029812;28;20171;-72
2021/10/27 05:58:48;;;;;;;9.48;3.90;;;14.60;86.40;;;;;;5027526;28;20132;-72
2021/10/27 06:01:14;;;;;;;9.30;4.50;;;14.70;86.50;;;;;;5029552;28;20037;-72
2021/10/27 06:03:41;;;;;;;9.38;4.32;;;14.70;87.00;;;;;;5028224;28;20471;-73
2021/10/27 06:06:07;;;;;;;11.20;4.40;;;14.70;86.50;;;;;;5027774;28;20029;-72
2021/10/27 06:08:34;;;;;;;8.50;4.28;;;14.70;86.30;;;;;;5029046;28;20380;-73
2021/10/27 06:11:08;;;;;;;13.23;4.72;;;14.70;86.10;;;;;;5028934;28;20025;-74
2021/10/27 06:13:35;;;;;;;11.82;5.55;;;14.60;86.10;;;;;;5009266;28;20072;-72
2021/10/27 06:16:01;;;;;;;12.50;4.82;;;14.60;86.10;;;;;;5019274;28;20029;-72
2021/10/27 06:18:28;;;;;;;10.38;4.82;;;14.60;86.20;;;;;;5027724;28;20091;-73
2021/10/27 06:20:54;;;;;;;9.60;4.43;;;14.60;86.10;;;;;;5024131;28;20022;-73
2021/10/27 06:23:23;;;;;;;12.68;5.00;;;14.60;86.10;;;;;;5012237;28;20037;-73
2021/10/27 06:25:50;;;;;;;10.70;4.97;;;14.70;86.10;;;;;;5029613;28;20061;-73
2021/10/27 06:28:21;;;;;;;11.68;4.85;;;14.60;86.00;;;;;;5027803;28;20026;-73
2021/10/27 06:30:53;;;;;;;12.38;5.15;;;14.60;86.00;;;;;;5027169;28;20111;-73
2021/10/27 06:35:50;;;;;;;12.20;5.00;;;14.60;86.20;;;;;;5028376;28;20072;-73
2021/10/27 06:38:31;;;;;;;9.50;4.57;;;14.60;86.10;;;;;;5027605;28;20029;-73
2021/10/27 06:46:36;;;;;;;9.65;4.85;;;14.60;86.00;;;;;;5030045;28;20076;-72
2021/10/27 06:49:02;;;;;;;14.60;5.35;;;14.60;86.20;;;;;;5011782;28;20471;-72
2021/10/27 06:51:28;;;;;;;9.43;4.90;;;14.60;86.10;;;;;;5027305;28;20385;-72
2021/10/27 06:53:53;;;;;;;10.93;5.15;;;14.50;86.10;;;;;;5010515;28;20034;-71
2021/10/27 06:56:23;;;;;;;9.70;5.72;;;14.50;86.00;;;;;;5029190;28;20037;-71
2021/10/27 07:01:21;;;;;;;13.18;5.40;;;14.50;85.90;;;;;;5029476;28;20035;-72
2021/10/27 07:17:09;;;;;;;11.27;5.20;;;14.60;85.80;;;;;;5017809;28;20037;-72
2021/10/27 07:19:43;;;;;;;9.70;5.53;;;14.60;85.80;;;;;;5027530;28;20484;-73
2021/10/27 07:22:13;;;;;;;9.90;5.32;;;14.60;85.70;;;;;;5018850;28;20050;-73
2021/10/27 07:24:40;;;;;;;11.15;5.35;;;14.60;85.50;;;;;;5024587;28;20219;-72
2021/10/27 07:27:07;;;;;;;10.32;6.05;;;14.60;85.20;;;;;;5038580;28;20450;-71
2021/10/27 07:29:34;;;;;;;9.07;5.50;;;14.60;85.40;;;;;;5036830;28;20033;-72
2021/10/27 07:32:01;;;;;;;12.55;5.65;;;14.60;85.40;;;;;;5012614;28;20149;-72
2021/10/27 07:34:41;;;;;;;9.02;5.57;;;14.60;85.30;;;;;;5032113;28;20040;-72
2021/10/27 07:42:39;;;;;;;10.05;5.97;;;14.60;85.40;;;;;;5027631;28;20041;-71
2021/10/27 07:45:05;;;;;;;14.63;6.15;;;14.60;85.40;;;;;;5005496;28;20025;-72
2021/10/27 07:47:30;;;;;;;11.40;5.80;;;14.60;85.40;;;;;;5032289;28;20484;-71
2021/10/27 07:49:56;;;;;;;10.90;5.90;;;14.60;85.30;;;;;;5029577;28;20013;-72
2021/10/27 07:52:22;;;;;;;14.82;6.15;;;14.60;85.20;;;;;;5025447;28;20080;-71
2021/10/27 07:54:48;;;;;;;15.80;6.97;;;14.60;85.00;;;;;;5028812;28;20037;-71
2021/10/27 07:57:14;;;;;;;10.73;5.97;;;14.60;85.00;;;;;;5030463;28;20507;-72
2021/10/27 07:59:40;;;;;;;13.27;7.22;;;14.60;85.10;;;;;;5030212;28;20084;-71
2021/10/27 08:02:06;;;;;;;11.05;6.43;;;14.60;85.10;;;;;;5031151;28;20496;-70
2021/10/27 08:04:37;;;;;;;12.63;7.18;;;14.60;85.10;;;;;;5028273;28;20137;-71
2021/10/27 08:07:06;;;;;;;10.73;5.97;;;14.60;85.20;;;;;;5024244;28;20037;-72
2021/10/27 08:09:34;;;;;;;15.52;6.85;;;14.60;85.10;;;;;;5022193;28;20022;-71
2021/10/27 08:12:00;;;;;;;10.07;6.35;;;14.60;85.20;;;;;;5032997;28;20034;-72
2021/10/27 08:14:25;;;;;;;13.32;7.10;;;14.70;85.10;;;;;;5026067;28;20082;-71
2021/10/27 08:16:51;;;;;;;12.32;7.70;;;14.70;85.20;;;;;;5013847;28;20033;-73
2021/10/27 08:19:17;;;;;;;13.98;7.05;;;14.70;85.50;;;;;;5025877;28;20496;-71
2021/10/27 08:21:43;;;;;;;13.82;7.75;;;14.70;84.90;;;;;;5032077;28;20052;-73
2021/10/27 08:24:10;;;;;;;10.70;6.97;;;14.70;84.80;;;;;;5034303;28;20091;-73
2021/10/27 08:26:37;;;;;;;14.02;7.45;;;14.80;84.90;;;;;;5031810;28;20056;-71
2021/10/27 08:29:12;;;;;;;11.32;7.13;;;14.80;84.50;;;;;;5028195;28;20026;-72
2021/10/27 08:31:40;;;;;;;14.43;8.18;;;14.80;84.30;;;;;;5037979;28;20037;-72
2021/10/27 08:34:12;;;;;;;13.18;7.03;;;14.80;84.30;;;;;;5037612;28;20033;-72
2021/10/27 08:36:37;;;;;;;12.77;7.20;;;14.80;84.50;;;;;;5033265;28;20456;-72
2021/10/27 08:39:04;;;;;;;10.35;7.47;;;14.90;84.40;;;;;;5036032;28;20036;-71
2021/10/27 08:41:32;;;;;;;12.73;7.68;;;14.90;84.30;;;;;;5030259;28;20033;-73
2021/10/27 08:43:59;;;;;;;12.70;7.05;;;14.80;84.20;;;;;;5035987;28;20375;-73
2021/10/27 08:46:25;;;;;;;12.07;6.78;;;14.90;84.20;;;;;;5035233;28;20391;-73
2021/10/27 08:48:51;;;;;;;12.10;7.40;;;14.90;84.90;;;;;;5033839;28;20024;-73
2021/10/27 08:51:18;;;;;;;14.00;7.43;;;14.90;84.40;;;;;;5037512;28;20029;-72
2021/10/27 08:53:45;;;;;;;15.82;7.95;;;14.90;84.20;;;;;;5040311;28;20491;-74
2021/10/27 08:56:11;;;;;;;12.07;8.15;;;14.90;83.90;;;;;;5035916;28;20115;-72
2021/10/27 08:58:40;;;;;;;14.35;8.40;;;14.90;83.90;;;;;;5021087;28;20072;-73
2021/10/27 09:01:23;;;;;;;13.55;7.90;;;14.90;84.10;;;;;;5025100;28;20461;-72
2021/10/27 09:06:51;;;;;;;13.68;8.23;;;14.80;84.40;;;;;;5027779;28;20050;-73
2021/10/27 09:15:48;;;;;;;13.27;8.73;;;14.80;84.40;;;;;;5027237;28;20515;-72
2021/10/27 10:05:23;;;;;;;10.75;6.57;;;16.10;81.60;;;;;;5026058;28;20052;-71
2021/10/27 10:07:50;;;;;;;13.02;7.32;;;16.30;81.20;;;;;;5027911;28;20095;-72
2021/10/27 10:10:16;;;;;;;9.85;7.28;;;16.50;79.90;;;;;;5031854;28;20121;-72
2021/10/27 10:12:51;;;;;;;12.60;7.05;;;16.60;79.70;;;;;;5037535;28;20148;-72
2021/10/27 10:15:22;;;;;;;10.07;7.13;;;16.60;80.00;;;;;;5029731;28;20057;-72
2021/10/27 10:17:50;;;;;;;10.43;7.50;;;16.70;78.60;;;;;;5030245;28;20570;-73
2021/10/27 10:20:17;;;;;;;9.98;6.95;;;16.80;78.50;;;;;;5026820;28;20061;-73
2021/10/27 10:22:43;;;;;;;10.68;5.57;;;16.90;78.50;;;;;;5028449;28;20404;-73
2021/10/27 10:25:16;;;;;;;11.45;6.80;;;17.00;78.80;;;;;;5027034;28;20373;-73
2021/10/27 10:28:18;;;;;;;12.68;6.70;;;17.10;77.10;;;;;;5034154;28;20029;-73
2021/10/27 10:30:51;;;;;;;7.85;6.40;;;17.20;76.70;;;;;;5027216;28;20109;-73
2021/10/27 10:33:18;;;;;;;9.82;6.93;;;17.20;76.70;;;;;;5042086;28;20053;-73
2021/10/27 10:36:05;;;;;;;10.25;6.57;;;17.20;76.00;;;;;;5025180;28;20523;-73
2021/10/27 11:15:12;;;;;;;6.45;4.72;;;17.50;74.50;;;;;;5031630;28;20485;-70
2021/10/27 11:40:06;;;;;;;6.82;4.72;;;17.00;75.30;;;;;;5029158;28;20044;-71
2021/10/27 11:42:40;;;;;;;;;;;17.00;75.00;;;;;;5040454;28;20025;-72
2021/10/27 11:46:24;;;;;;;8.65;5.00;;;16.90;75.00;;;;;;5031730;28;20390;-72
2021/10/27 11:51:13;;;;;;;7.57;4.78;;;16.70;75.30;;;;;;5035237;28;20160;-73
2021/10/27 11:53:47;;;;;;;10.60;5.60;;;16.70;75.60;;;;;;5029108;28;20104;-72
2021/10/27 11:56:19;;;;;;;9.00;5.60;;;16.70;75.60;;;;;;5032352;28;20094;-71
2021/10/27 11:58:46;;;;;;;;;;;16.60;76.00;;;;;;5028644;28;20029;-73
2021/10/27 12:01:37;;;;;;;7.20;5.47;;;16.60;75.90;;;;;;5034828;28;19913;-71
2021/10/27 12:04:09;;;;;;;8.43;5.35;;;16.60;76.00;;;;;;5029997;28;20140;-72
2021/10/27 12:06:47;;;;;;;;;;;16.60;76.30;;;;;;5031217;28;20035;-72
2021/10/27 12:14:36;;;;;;;7.82;5.50;;;16.70;76.30;;;;;;5028284;28;20040;-72
2021/10/27 12:17:24;;;;;;;7.07;4.85;;;16.70;76.20;;;;;;5022063;28;20072;-71
2021/10/27 12:19:50;;;;;;;9.45;5.38;;;16.70;76.10;;;;;;5021798;28;20148;-71
2021/10/27 12:22:20;;;;;;;10.63;5.43;;;16.70;76.00;;;;;;5021691;28;20124;-70
2021/10/27 12:25:00;;;;;;;10.15;5.68;;;16.70;75.90;;;;;;5021385;28;20034;-72
2021/10/27 12:27:34;;;;;;;8.85;5.30;;;16.70;75.90;;;;;;5021401;28;20665;-72
2021/10/27 12:30:03;;;;;;;8.80;5.32;;;16.80;75.90;;;;;;5027746;28;20649;-72
2021/10/27 12:32:29;;;;;;;9.70;5.68;;;16.80;75.80;;;;;;5035190;28;20432;-73
2021/10/27 12:35:02;;;;;;;11.52;5.38;;;16.90;75.70;;;;;;5031494;28;20037;-73
2021/10/27 12:37:34;;;;;;;7.90;5.05;;;16.90;75.80;;;;;;5026996;28;20111;-72
2021/10/27 12:40:13;;;;;;;11.63;5.07;;;17.00;76.10;;;;;;5026692;28;20037;-73
2021/10/27 12:42:38;;;;;;;11.25;5.97;;;17.00;76.20;;;;;;5028621;28;20032;-72
2021/10/27 12:45:06;;;;;;;7.50;5.05;;;17.00;75.30;;;;;;5028201;28;20033;-71
2021/10/27 12:47:39;;;;;;;9.13;5.07;;;17.00;75.10;;;;;;5032600;28;20487;-71
2021/10/27 12:50:19;;;;;;;9.15;5.00;;;17.00;75.10;;;;;;5027952;28;20028;-72
2021/10/27 12:52:53;;;;;;;11.60;5.85;;;17.00;75.20;;;;;;5023679;28;20041;-73
2021/10/27 12:55:33;;;;;;;8.40;4.82;;;17.00;74.90;;;;;;5031041;28;20108;-71
2021/10/27 12:58:17;;;;;;;8.50;5.80;;;17.00;75.10;;;;;;5027300;28;20452;-72
2021/10/27 13:03:40;;;;;;;9.45;5.90;;;17.10;74.80;;;;;;5028533;28;20465;-72
2021/10/27 13:06:21;;;;;;;10.25;5.97;;;17.10;74.40;;;;;;5027479;28;20060;-72
2021/10/27 13:12:38;;;;;;;12.93;5.82;;;17.30;74.40;;;;;;5027240;28;20139;-72
2021/10/27 13:30:53;;;;;;;8.25;4.97;;;17.70;72.20;;;;;;5025745;28;20116;-72
2021/10/27 13:33:20;;;;;;;9.98;4.93;;;17.90;71.80;;;;;;5029783;28;20523;-72
2021/10/27 13:35:46;;;;;;;7.40;5.00;;;18.10;71.10;;;;;;5028415;28;20033;-72
2021/10/27 13:38:13;;;;;;;8.60;5.28;;;18.10;70.00;;;;;;5028755;28;20908;-72
2021/10/27 13:40:45;;;;;;;6.53;4.38;;;18.10;69.90;;;;;;5029013;28;20044;-72
2021/10/27 13:43:27;;;;;;;9.70;5.50;;;18.00;70.70;;;;;;5030151;28;20026;-72
2021/10/27 13:46:15;;;;;;;8.95;5.82;;;17.90;70.30;;;;;;5034255;28;20043;-72
2021/10/27 13:49:04;;;;;;;7.97;5.38;;;17.80;70.40;;;;;;5029623;28;20025;-71
2021/10/27 14:11:26;;;;;;;8.27;4.85;;;18.00;69.40;;;;;;5034706;28;20150;-72
2021/10/27 14:14:04;;;;;;;10.43;4.95;;;18.50;68.20;;;;;;5029704;28;20087;-71
2021/10/27 15:21:26;;;;;;;5.57;4.13;;;19.70;62.80;;;;;;5031387;28;20044;-71
2021/10/27 15:34:53;;;;;;;11.23;4.10;;;18.70;66.10;;;;;;5024918;28;20060;-72
2021/10/27 15:43:07;;;;;;;7.78;4.03;;;18.40;67.50;;;;;;5030647;28;20507;-71
2021/10/27 15:51:02;;;;;;;7.13;3.85;;;18.10;68.30;;;;;;5022762;28;20222;-73
2021/10/27 15:53:27;;;;;;;8.18;3.97;;;18.00;69.20;;;;;;5028965;28;20026;-71
2021/10/27 15:55:53;;;;;;;8.75;4.00;;;18.00;69.10;;;;;;5030724;28;20511;-71
2021/10/27 15:58:19;;;;;;;10.15;3.65;;;17.90;69.20;;;;;;5029521;28;20111;-70
2021/10/27 16:00:46;;;;;;;8.35;3.72;;;17.90;69.50;;;;;;5027102;28;20507;-71
2021/10/27 16:03:15;;;;;;;6.63;3.50;;;17.80;69.60;;;;;;5029503;28;20091;-72
2021/10/27 16:05:43;;;;;;;8.05;3.78;;;17.80;69.90;;;;;;5030279;28;20040;-71
2021/10/27 16:08:12;;;;;;;9.25;3.90;;;17.70;70.00;;;;;;5029199;28;20317;-72
2021/10/27 16:10:42;;;;;;;7.38;4.10;;;17.70;70.10;;;;;;5029405;28;20068;-70
2021/10/27 16:13:09;;;;;;;9.43;3.78;;;17.60;70.30;;;;;;5021826;28;20026;-70
2021/10/27 16:15:42;;;;;;;7.45;3.70;;;17.60;70.60;;;;;;5025937;28;20373;-71
2021/10/27 16:18:13;;;;;;;8.95;4.18;;;17.50;70.70;;;;;;5026097;28;20030;-72
2021/10/27 16:20:44;;;;;;;9.43;4.38;;;17.50;70.90;;;;;;5026429;28;20412;-72
2021/10/27 16:23:14;;;;;;;13.38;4.60;;;17.40;71.00;;;;;;5025823;28;20037;-72
2021/10/27 16:25:41;;;;;;;9.02;5.60;;;17.40;71.10;;;;;;5029390;28;20037;-70
2021/10/27 16:28:07;;;;;;;8.35;4.38;;;17.30;71.40;;;;;;5030724;28;20080;-71
2021/10/27 16:30:34;;;;;;;10.00;4.38;;;17.20;71.50;;;;;;5026182;28;20465;-71
2021/10/27 16:33:00;;;;;;;8.55;4.30;;;17.20;71.60;;;;;;5029793;28;20049;-71
2021/10/27 16:35:27;;;;;;;10.90;4.28;;;17.20;71.60;;;;;;5029431;28;20021;-71
2021/10/27 16:37:54;;;;;;;7.90;4.22;;;17.10;71.60;;;;;;5027208;28;20504;-71
2021/10/27 16:40:20;;;;;;;6.18;4.38;;;17.10;71.50;;;;;;5028194;28;20037;-71
2021/10/27 16:42:47;;;;;;;6.22;3.83;;;17.00;71.60;;;;;;5028713;28;20072;-71
2021/10/27 16:45:14;;;;;;;11.52;4.72;;;17.00;71.70;;;;;;5029365;28;20029;-71
2021/10/27 16:47:40;;;;;;;7.57;3.90;;;16.90;72.40;;;;;;5027825;28;20485;-71
2021/10/27 16:50:08;;;;;;;11.57;4.18;;;16.80;72.60;;;;;;5028402;28;20188;-71
2021/10/27 16:52:35;;;;;;;10.25;3.88;;;16.80;72.70;;;;;;5022906;28;20590;-73
2021/10/27 16:55:03;;;;;;;8.05;3.53;;;16.70;72.90;;;;;;5027264;28;20033;-72
2021/10/27 16:57:29;;;;;;;7.93;4.00;;;16.70;73.10;;;;;;5027948;28;20060;-72
2021/10/27 16:59:55;;;;;;;10.90;4.30;;;16.70;73.30;;;;;;5029201;28;20056;-71
2021/10/27 17:02:21;;;;;;;8.82;3.90;;;16.70;73.40;;;;;;5031587;28;20120;-70
2021/10/27 17:04:50;;;;;;;8.95;4.15;;;16.70;73.40;;;;;;5029957;28;20112;-72
2021/10/27 17:07:15;;;;;;;7.93;4.05;;;16.70;73.50;;;;;;5029694;28;20032;-70
2021/10/27 17:09:41;;;;;;;8.20;3.92;;;16.60;73.70;;;;;;5030156;28;20033;-71
2021/10/27 17:12:08;;;;;;;8.57;4.13;;;16.60;73.90;;;;;;5029023;28;20025;-71
2021/10/27 17:14:35;;;;;;;6.28;3.53;;;16.60;74.10;;;;;;5029255;28;20030;-71
2021/10/27 17:17:02;;;;;;;12.30;4.00;;;16.50;74.10;;;;;;5029804;28;20025;-71
2021/10/27 17:19:28;;;;;;;7.03;3.78;;;16.50;74.40;;;;;;5028629;28;20119;-70
2021/10/27 17:21:55;;;;;;;8.88;4.53;;;16.50;74.50;;;;;;5029000;28;20389;-71
2021/10/27 17:24:21;;;;;;;10.80;4.45;;;16.50;74.60;;;;;;5030155;28;20040;-72
2021/10/27 17:26:47;;;;;;;8.40;3.80;;;16.40;74.70;;;;;;5029672;28;20033;-71
2021/10/27 17:29:13;;;;;;;8.77;4.20;;;16.40;74.70;;;;;;5027841;28;20025;-70
2021/10/27 17:31:40;;;;;;;9.30;4.65;;;16.40;74.80;;;;;;5029511;28;20493;-70